Time;durP1;ratioP1;P1;durP2;ratioP2;P2;SDS_P1;SDS_P2;PMS_P1;PMS_P2;Temp;Humidity;BMP_temperature;BMP_pressure;BME280_temperature;BME280_humidity;BME280_pressure;Samples;Min_cycle;Max_cycle;Signal;HPM_P1;HPM_P2
2023/03/24 00:00:55;;;;;;;;;;;;;;;;;;4939222;28;19921;-79
2023/03/24 00:03:24;;;;;;;;;;;;;;;;;;4989289;28;19914;-79
2023/03/24 00:05:50;;;;;;;;;;;;;;;;;;4955833;28;20000;-80
2023/03/24 00:08:16;;;;;;;;;;;;;;;;;;4939839;28;19914;-79
2023/03/24 00:10:42;;;;;;;;;;;;;;;;;;4956083;28;19938;-78
2023/03/24 00:13:08;;;;;;;;;;;;;;;;;;4988123;28;19914;-79
2023/03/24 00:15:35;;;;;;;;;;;;;;;;;;4956424;28;19915;-80
2023/03/24 00:18:00;;;;;;;;;;;;;;;;;;4974512;28;19914;-79
2023/03/24 00:20:27;;;;;;;;;;;;;;;;;;4958266;28;19965;-79
2023/03/24 00:22:57;;;;;;;;;;;;;;;;;;4957531;28;19922;-80
2023/03/24 00:25:23;;;;;;;;;;;;;;;;;;4975334;28;19914;-80
2023/03/24 00:27:50;;;;;;;;;;;;;;;;;;4959852;28;19921;-79
2023/03/24 00:30:16;;;;;;;;;;;;;;;;;;4960126;28;19922;-80
2023/03/24 00:32:42;;;;;;;;;;;;;;;;;;4959670;28;20003;-78
2023/03/24 00:35:08;;;;;;;;;;;;;;;;;;4960256;28;20179;-80
2023/03/24 00:37:36;;;;;;;;;;;;;;;;;;4976130;28;19914;-82
2023/03/24 00:40:03;;;;;;;;;;;;;;;;;;4959446;28;19920;-79
2023/03/24 00:42:29;;;;;;;;;;;;;;;;;;4959389;28;19921;-80
2023/03/24 00:44:54;;;;;;;;;;;;;;;;;;4987559;23;19929;-78
2023/03/24 00:47:24;;;;;;;;;;;;;;;;;;4978092;28;20004;-78
2023/03/24 00:49:52;;;;;;;;;;;;;;;;;;4995379;28;19918;-77
2023/03/24 00:52:19;;;;;;;;;;;;;;;;;;4946097;28;19921;-79
2023/03/24 00:54:44;;;;;;;;;;;;;;;;;;4977445;28;19924;-78
2023/03/24 00:57:11;;;;;;;;;;;;;;;;;;4961921;28;19969;-78
2023/03/24 00:59:41;;;;;;;;;;;;;;;;;;4978013;28;20378;-77
2023/03/24 01:02:10;;;;;;;;;;;;;;;;;;4977819;28;19918;-77
2023/03/24 01:04:35;;;;;;;;;;;;;;;;;;4978065;28;19914;-78
2023/03/24 01:07:01;;;;;;;;;;;;;;;;;;4995736;28;19917;-78
2023/03/24 01:09:26;;;;;;;;;;;;;;;;;;4994381;28;19920;-78
2023/03/24 01:11:52;;;;;;;;;;;;;;;;;;4994515;28;19914;-79
2023/03/24 01:14:18;;;;;;;;;;;;;;;;;;4995253;28;20009;-79
2023/03/24 01:16:43;;;;;;;;;;;;;;;;;;4994345;28;20353;-79
2023/03/24 01:19:09;;;;;;;;;;;;;;;;;;4978431;28;19918;-78
2023/03/24 01:21:35;;;;;;;;;;;;;;;;;;4996827;28;20415;-79
2023/03/24 01:24:02;;;;;;;;;;;;;;;;;;5000215;28;19960;-79
2023/03/24 01:26:27;;;;;;;;;;;;;;;;;;5002189;28;19914;-78
2023/03/24 01:28:53;;;;;;;;;;;;;;;;;;5012198;28;19940;-78
2023/03/24 01:31:18;;;;;;;;;;;;;;;;;;5009807;28;19920;-78
2023/03/24 01:33:44;;;;;;;;;;;;;;;;;;5006583;28;19993;-78
2023/03/24 01:36:09;;;;;;;;;;;;;;;;;;5007590;28;19918;-78
2023/03/24 01:38:35;;;;;;;;;;;;;;;;;;5010726;28;19985;-78
2023/03/24 01:41:00;;;;;;;;;;;;;;;;;;5016086;28;19921;-78
2023/03/24 01:43:26;;;;;;;;;;;;;;;;;;5012282;28;19914;-78
2023/03/24 01:45:51;;;;;;;;;;;;;;;;;;4995145;28;20404;-78
2023/03/24 01:48:17;;;;;;;;;;;;;;;;;;4994009;28;19921;-77
2023/03/24 01:50:42;;;;;;;;;;;;;;;;;;4994304;28;19914;-78
2023/03/24 01:53:08;;;;;;;;;;;;;;;;;;4994043;28;20381;-78
2023/03/24 01:55:33;;;;;;;;;;;;;;;;;;4992603;28;19992;-78
2023/03/24 01:58:00;;;;;;;;;;;;;;;;;;4977098;28;19924;-78
2023/03/24 02:00:32;;;;;;;;;;;;;;;;;;4993320;28;19914;-78
2023/03/24 02:03:17;;;;;;;;;;;;;;;;;;4994455;28;19914;-79
2023/03/24 02:05:48;;;;;;;;;;;;;;;;;;4992577;28;19913;-78
2023/03/24 02:08:14;;;;;;;;;;;;;;;;;;4993822;28;20332;-78
2023/03/24 02:10:40;;;;;;;;;;;;;;;;;;4976649;28;19996;-77
2023/03/24 02:13:06;;;;;;;;;;;;;;;;;;4992644;28;20346;-78
2023/03/24 02:15:32;;;;;;;;;;;;;;;;;;4976331;28;19992;-79
2023/03/24 02:17:57;;;;;;;;;;;;;;;;;;4993872;28;19952;-79
2023/03/24 02:20:23;;;;;;;;;;;;;;;;;;4991900;28;19957;-78
2023/03/24 02:22:48;;;;;;;;;;;;;;;;;;4993829;28;19914;-77
2023/03/24 02:25:14;;;;;;;;;;;;;;;;;;4993386;28;20508;-78
2023/03/24 02:27:41;;;;;;;;;;;;;;;;;;4999689;28;20431;-78
2023/03/24 02:30:06;;;;;;;;;;;;;;;;;;4999117;28;20349;-78
2023/03/24 02:32:32;;;;;;;;;;;;;;;;;;4981227;28;19929;-78
2023/03/24 02:34:57;;;;;;;;;;;;;;;;;;4998300;28;19967;-78
2023/03/24 02:37:26;;;;;;;;;;;;;;;;;;4998032;28;19914;-78
2023/03/24 02:39:55;;;;;;;;;;;;;;;;;;4981057;28;20353;-78
2023/03/24 02:42:20;;;;;;;;;;;;;;;;;;5001499;28;19913;-78
2023/03/24 02:44:46;;;;;;;;;;;;;;;;;;5002832;28;19918;-78
2023/03/24 02:47:11;;;;;;;;;;;;;;;;;;4985009;28;19913;-79
2023/03/24 02:49:37;;;;;;;;;;;;;;;;;;5002282;28;19914;-79
2023/03/24 02:52:02;;;;;;;;;;;;;;;;;;4999528;28;20391;-79
2023/03/24 02:54:28;;;;;;;;;;;;;;;;;;4999371;28;20377;-78
2023/03/24 02:56:53;;;;;;;;;;;;;;;;;;4963968;28;19918;-79
2023/03/24 02:59:30;;;;;;;;;;;;;;;;;;4996132;28;19944;-78
2023/03/24 03:02:00;;;;;;;;;;;;;;;;;;4981669;28;20425;-79
2023/03/24 03:04:35;;;;;;;;;;;;;;;;;;4998367;28;19914;-79
2023/03/24 03:07:01;;;;;;;;;;;;;;;;;;4965429;28;20380;-78
2023/03/24 03:09:27;;;;;;;;;;;;;;;;;;4982355;28;20005;-77
2023/03/24 03:11:52;;;;;;;;;;;;;;;;;;4997784;28;20021;-79
2023/03/24 03:14:17;;;;;;;;;;;;;;;;;;4996237;28;19961;-77
2023/03/24 03:16:44;;;;;;;;;;;;;;;;;;4995057;28;19914;-79
2023/03/24 03:19:09;;;;;;;;;;;;;;;;;;4995886;28;19914;-78
2023/03/24 03:21:35;;;;;;;;;;;;;;;;;;4996214;28;19985;-79
2023/03/24 03:24:01;;;;;;;;;;;;;;;;;;4997052;28;19921;-79
2023/03/24 03:26:27;;;;;;;;;;;;;;;;;;4995988;28;20336;-79
2023/03/24 03:28:56;;;;;;;;;;;;;;;;;;4997024;28;19914;-77
2023/03/24 03:31:23;;;;;;;;;;;;;;;;;;4982831;28;20305;-78
2023/03/24 03:33:49;;;;;;;;;;;;;;;;;;5000330;28;19974;-78
2023/03/24 03:36:15;;;;;;;;;;;;;;;;;;4966570;28;19920;-78
2023/03/24 03:38:41;;;;;;;;;;;;;;;;;;4983270;28;20381;-77
2023/03/24 03:41:06;;;;;;;;;;;;;;;;;;4967890;28;20439;-77
2023/03/24 03:43:34;;;;;;;;;;;;;;;;;;4984614;28;19918;-78
2023/03/24 03:46:00;;;;;;;;;;;;;;;;;;4984694;28;19917;-79
2023/03/24 03:48:31;;;;;;;;;;;;;;;;;;4985800;28;19910;-77
2023/03/24 03:50:57;;;;;;;;;;;;;;;;;;5003274;28;20366;-78
2023/03/24 03:53:22;;;;;;;;;;;;;;;;;;5005133;28;19921;-79
2023/03/24 03:55:48;;;;;;;;;;;;;;;;;;4983571;28;20271;-78
2023/03/24 03:58:13;;;;;;;;;;;;;;;;;;4985109;28;19953;-78
2023/03/24 04:00:48;;;;;;;;;;;;;;;;;;4969569;28;19914;-78
2023/03/24 04:03:34;;;;;;;;;;;;;;;;;;4939804;28;19913;-78
2023/03/24 04:06:03;;;;;;;;;;;;;;;;;;5003352;28;19972;-79
2023/03/24 04:08:30;;;;;;;;;;;;;;;;;;5001249;28;19910;-78
2023/03/24 04:11:14;;;;;;;;;;;;;;;;;;4997666;28;19913;-78
2023/03/24 04:14:00;;;;;;;;;;;;;;;;;;4981227;28;20031;-77
2023/03/24 04:16:33;;;;;;;;;;;;;;;;;;5001338;28;19913;-77
2023/03/24 04:19:03;;;;;;;;;;;;;;;;;;4999162;28;19914;-78
2023/03/24 04:21:32;;;;;;;;;;;;;;;;;;4983731;28;19945;-77
2023/03/24 04:23:57;;;;;;;;;;;;;;;;;;5001082;28;19913;-77
2023/03/24 04:26:25;;;;;;;;;;;;;;;;;;5003136;28;20202;-78
2023/03/24 04:28:56;;;;;;;;;;;;;;;;;;5002490;28;19914;-79
2023/03/24 04:31:24;;;;;;;;;;;;;;;;;;5002191;28;19949;-80
2023/03/24 04:33:50;;;;;;;;;;;;;;;;;;5001124;28;19956;-78
2023/03/24 04:36:18;;;;;;;;;;;;;;;;;;5000487;28;20293;-80
2023/03/24 04:39:10;;;;;;;;;;;;;;;;;;5000565;28;19918;-78
2023/03/24 04:41:42;;;;;;;;;;;;;;;;;;4999605;28;19921;-78
2023/03/24 04:44:13;;;;;;;;;;;;;;;;;;4983747;28;20000;-78
2023/03/24 04:46:52;;;;;;;;;;;;;;;;;;4984430;28;19921;-77
2023/03/24 04:49:19;;;;;;;;;;;;;;;;;;4980761;28;19914;-79
2023/03/24 04:51:46;;;;;;;;;;;;;;;;;;4980797;28;19921;-78
2023/03/24 04:54:16;;;;;;;;;;;;;;;;;;4980352;28;19914;-78
2023/03/24 04:56:48;;;;;;;;;;;;;;;;;;5006574;28;19917;-78
2023/03/24 04:59:34;;;;;;;;;;;;;;;;;;5004829;28;19921;-77
2023/03/24 05:02:01;;;;;;;;;;;;;;;;;;4999121;28;19964;-78
2023/03/24 05:04:35;;;;;;;;;;;;;;;;;;5000727;28;20289;-77
2023/03/24 05:07:14;;;;;;;;;;;;;;;;;;4998929;28;19922;-79
2023/03/24 05:09:40;;;;;;;;;;;;;;;;;;5017816;28;19917;-77
2023/03/24 05:12:05;;;;;;;;;;;;;;;;;;5001673;28;20069;-78
2023/03/24 05:14:43;;;;;;;;;;;;;;;;;;4985127;28;20017;-78
2023/03/24 05:17:09;;;;;;;;;;;;;;;;;;4979465;28;19966;-78
2023/03/24 05:19:35;;;;;;;;;;;;;;;;;;4978472;28;19914;-78
2023/03/24 05:22:00;;;;;;;;;;;;;;;;;;4995406;28;19924;-78
2023/03/24 05:24:26;;;;;;;;;;;;;;;;;;4977430;28;19913;-78
2023/03/24 05:26:51;;;;;;;;;;;;;;;;;;4977104;28;19918;-78
2023/03/24 05:29:18;;;;;;;;;;;;;;;;;;4993658;28;20440;-78
2023/03/24 05:31:44;;;;;;;;;;;;;;;;;;4994456;28;19956;-77
2023/03/24 05:34:20;;;;;;;;;;;;;;;;;;4962674;28;19949;-79
2023/03/24 05:36:54;;;;;;;;;;;;;;;;;;4994974;28;20004;-79
2023/03/24 05:39:21;;;;;;;;;;;;;;;;;;4994646;28;19913;-78
2023/03/24 05:42:02;;;;;;;;;;;;;;;;;;4995469;28;19921;-78
2023/03/24 05:44:27;;;;;;;;;;;;;;;;;;4977289;28;19917;-77
2023/03/24 05:47:02;;;;;;;;;;;;;;;;;;4993242;28;19910;-77
2023/03/24 05:49:27;;;;;;;;;;;;;;;;;;4976922;28;19921;-77
2023/03/24 05:51:54;;;;;;;;;;;;;;;;;;4993352;28;19918;-78
2023/03/24 05:54:21;;;;;;;;;;;;;;;;;;4977017;28;20404;-77
2023/03/24 05:56:47;;;;;;;;;;;;;;;;;;4993331;28;19913;-79
2023/03/24 05:59:26;;;;;;;;;;;;;;;;;;4995902;28;19913;-78
2023/03/24 06:02:01;;;;;;;;;;;;;;;;;;4995781;28;20238;-78
2023/03/24 06:04:45;;;;;;;;;;;;;;;;;;4995293;28;20388;-78
2023/03/24 06:07:13;;;;;;;;;;;;;;;;;;4994813;28;19920;-78
2023/03/24 06:09:45;;;;;;;;;;;;;;;;;;4995311;28;19914;-78
2023/03/24 06:12:12;;;;;;;;;;;;;;;;;;4977892;28;20009;-78
2023/03/24 06:14:44;;;;;;;;;;;;;;;;;;4992329;28;19924;-78
2023/03/24 06:17:16;;;;;;;;;;;;;;;;;;4994338;28;19913;-78
2023/03/24 06:19:48;;;;;;;;;;;;;;;;;;4994745;28;19913;-78
2023/03/24 06:22:25;;;;;;;;;;;;;;;;;;4976897;28;19960;-78
2023/03/24 06:24:52;;;;;;;;;;;;;;;;;;4960089;28;19941;-78
2023/03/24 06:27:20;;;;;;;;;;;;;;;;;;4994289;28;19910;-77
2023/03/24 06:29:46;;;;;;;;;;;;;;;;;;4994113;28;19920;-78
2023/03/24 06:32:12;;;;;;;;;;;;;;;;;;4992820;28;19917;-79
2023/03/24 06:34:40;;;;;;;;;;;;;;;;;;4992580;28;19928;-78
2023/03/24 06:37:32;;;;;;;;;;;;;;;;;;4990780;28;19918;-79
2023/03/24 06:39:59;;;;;;;;;;;;;;;;;;4992820;28;20301;-78
2023/03/24 06:42:28;;;;;;;;;;;;;;;;;;4992996;28;20385;-79
2023/03/24 06:44:53;;;;;;;;;;;;;;;;;;4977001;23;19930;-82
2023/03/24 06:47:19;;;;;;;;;;;;;;;;;;4956174;28;19914;-82
2023/03/24 06:49:45;;;;;;;;;;;;;;;;;;4956360;28;20258;-81
2023/03/24 06:52:11;;;;;;;;;;;;;;;;;;4956010;28;20353;-80
2023/03/24 06:54:39;;;;;;;;;;;;;;;;;;4955610;28;19965;-79
2023/03/24 06:57:05;;;;;;;;;;;;;;;;;;4924824;28;19973;-80
2023/03/24 06:59:51;;;;;;;;;;;;;;;;;;4942509;28;20436;-79
2023/03/24 07:02:17;;;;;;;;;;;;;;;;;;4940229;28;19972;-79
2023/03/24 07:04:44;;;;;;;;;;;;;;;;;;4955716;28;19914;-78
2023/03/24 07:07:36;;;;;;;;;;;;;;;;;;4957726;28;19918;-78
2023/03/24 07:10:22;;;;;;;;;;;;;;;;;;4962263;28;20070;-79
2023/03/24 07:12:48;;;;;;;;;;;;;;;;;;4928217;28;20000;-80
2023/03/24 07:15:14;;;;;;;;;;;;;;;;;;4943665;28;20392;-81
2023/03/24 07:17:41;;;;;;;;;;;;;;;;;;4944234;28;19914;-80
2023/03/24 07:20:25;;;;;;;;;;;;;;;;;;4977272;28;19914;-80
2023/03/24 07:23:02;;;;;;;;;;;;;;;;;;4944098;28;19920;-79
2023/03/24 07:25:40;;;;;;;;;;;;;;;;;;4945513;28;19920;-78
2023/03/24 07:28:16;;;;;;;;;;;;;;;;;;4961412;28;19973;-79
2023/03/24 07:30:42;;;;;;;;;;;;;;;;;;4959801;28;20377;-79
2023/03/24 07:33:11;;;;;;;;;;;;;;;;;;4943907;28;20022;-80
2023/03/24 07:35:37;;;;;;;;;;;;;;;;;;4958781;28;19926;-80
2023/03/24 07:38:04;;;;;;;;;;;;;;;;;;4976709;28;19965;-79
2023/03/24 07:40:29;;;;;;;;;;;;;;;;;;4943662;28;19968;-80
2023/03/24 07:42:55;;;;;;;;;;;;;;;;;;4959672;28;20377;-80
2023/03/24 07:45:32;;;;;;;;;;;;;;;;;;4943109;28;20290;-82
2023/03/24 07:48:04;;;;;;;;;;;;;;;;;;4929563;28;19918;-80
2023/03/24 07:50:34;;;;;;;;;;;;;;;;;;4928912;28;19918;-83
2023/03/24 07:53:08;;;;;;;;;;;;;;;;;;4960531;28;19956;-80
2023/03/24 07:55:35;;;;;;;;;;;;;;;;;;4960012;28;19918;-80
2023/03/24 07:58:07;;;;;;;;;;;;;;;;;;4929695;28;19961;-80
2023/03/24 08:00:34;;;;;;;;;;;;;;;;;;4928612;28;19915;-80
2023/03/24 08:03:24;;;;;;;;;;;;;;;;;;4960020;28;19977;-80
2023/03/24 08:06:18;;;;;;;;;;;;;;;;;;4943584;28;19914;-79
2023/03/24 08:08:52;;;;;;;;;;;;;;;;;;4929864;28;19914;-79
2023/03/24 08:11:18;;;;;;;;;;;;;;;;;;4977629;28;19915;-80
2023/03/24 08:13:43;;;;;;;;;;;;;;;;;;4944482;28;19914;-83
2023/03/24 08:16:09;;;;;;;;;;;;;;;;;;4978259;28;19918;-81
2023/03/24 08:18:35;;;;;;;;;;;;;;;;;;4960387;28;19914;-82
2023/03/24 08:21:01;;;;;;;;;;;;;;;;;;4944667;28;19914;-83
2023/03/24 08:23:27;;;;;;;;;;;;;;;;;;4959645;28;19922;-81
2023/03/24 08:25:52;;;;;;;;;;;;;;;;;;4943757;28;19937;-80
2023/03/24 08:28:18;;;;;;;;;;;;;;;;;;4960690;28;20005;-83
2023/03/24 08:30:44;;;;;;;;;;;;;;;;;;4944648;28;20001;-81
2023/03/24 08:33:10;;;;;;;;;;;;;;;;;;4943964;28;19918;-81
2023/03/24 08:35:39;;;;;;;;;;;;;;;;;;4959128;28;19960;-80
2023/03/24 08:38:05;;;;;;;;;;;;;;;;;;4944183;28;19914;-82
2023/03/24 08:40:33;;;;;;;;;;;;;;;;;;4959875;28;19937;-82
2023/03/24 08:42:58;;;;;;;;;;;;;;;;;;4943713;28;19961;-79
2023/03/24 08:45:26;;;;;;;;;;;;;;;;;;4943361;28;19918;-79
2023/03/24 08:47:51;;;;;;;;;;;;;;;;;;4976987;28;19964;-80
2023/03/24 08:50:17;;;;;;;;;;;;;;;;;;4944767;28;20012;-80
2023/03/24 08:52:46;;;;;;;;;;;;;;;;;;4943840;28;19914;-81
2023/03/24 08:55:12;;;;;;;;;;;;;;;;;;4976167;28;19977;-80
2023/03/24 08:57:37;;;;;;;;;;;;;;;;;;4976061;28;19915;-81
2023/03/24 09:00:09;;;;;;;;;;;;;;;;;;4943687;28;19921;-82
2023/03/24 09:02:35;;;;;;;;;;;;;;;;;;4943629;28;19950;-82
2023/03/24 09:05:00;;;;;;;;;;;;;;;;;;4958669;28;19941;-84
2023/03/24 09:07:26;;;;;;;;;;;;;;;;;;4927704;28;19918;-81
2023/03/24 09:09:52;;;;;;;;;;;;;;;;;;4959795;28;19918;-82
2023/03/24 09:12:17;;;;;;;;;;;;;;;;;;4943390;28;19914;-79
2023/03/24 09:14:43;;;;;;;;;;;;;;;;;;4958754;28;20017;-81
2023/03/24 09:17:08;;;;;;;;;;;;;;;;;;4976384;28;20037;-82
2023/03/24 09:19:34;;;;;;;;;;;;;;;;;;4927333;28;19914;-83
2023/03/24 09:22:00;;;;;;;;;;;;;;;;;;4942595;28;19945;-83
2023/03/24 09:24:26;;;;;;;;;;;;;;;;;;4942729;28;19914;-82
2023/03/24 09:26:51;;;;;;;;;;;;;;;;;;4942125;28;19973;-82
2023/03/24 09:29:17;;;;;;;;;;;;;;;;;;4958531;28;19921;-80
2023/03/24 09:31:43;;;;;;;;;;;;;;;;;;4975794;28;20345;-82
2023/03/24 09:34:08;;;;;;;;;;;;;;;;;;4958987;28;20000;-80
2023/03/24 09:36:33;;;;;;;;;;;;;;;;;;4942338;28;19988;-82
2023/03/24 09:38:59;;;;;;;;;;;;;;;;;;4958538;28;19914;-80
2023/03/24 09:41:25;;;;;;;;;;;;;;;;;;4975971;28;19917;-79
2023/03/24 09:43:50;;;;;;;;;;;;;;;;;;4958293;28;19914;-80
2023/03/24 09:46:17;;;;;;;;;;;;;;;;;;4957944;28;19922;-80
2023/03/24 09:48:42;;;;;;;;;;;;;;;;;;4975744;28;19952;-79
2023/03/24 09:51:08;;;;;;;;;;;;;;;;;;4926709;28;19953;-80
2023/03/24 09:53:33;;;;;;;;;;;;;;;;;;4958622;28;20382;-81
2023/03/24 09:55:59;;;;;;;;;;;;;;;;;;4926553;28;19941;-82
2023/03/24 09:58:27;;;;;;;;;;;;;;;;;;4959007;28;20366;-83
2023/03/24 10:00:53;;;;;;;;;;;;;;;;;;4943089;28;19924;-82
2023/03/24 10:03:20;;;;;;;;;;;;;;;;;;4942785;28;19914;-80
2023/03/24 10:05:48;;;;;;;;;;;;;;;;;;4957636;28;19926;-82
2023/03/24 10:08:14;;;;;;;;;;;;;;;;;;4958583;28;19914;-81
2023/03/24 10:10:41;;;;;;;;;;;;;;;;;;4958445;28;19925;-79
2023/03/24 10:13:06;;;;;;;;;;;;;;;;;;4941837;28;20127;-80
2023/03/24 10:15:32;;;;;;;;;;;;;;;;;;4958156;28;20305;-81
2023/03/24 10:17:58;;;;;;;;;;;;;;;;;;4959396;28;19961;-79
2023/03/24 10:20:24;;;;;;;;;;;;;;;;;;4974644;28;19914;-81
2023/03/24 10:22:50;;;;;;;;;;;;;;;;;;4958513;28;19921;-80
2023/03/24 10:25:16;;;;;;;;;;;;;;;;;;4957947;28;19969;-80
2023/03/24 10:27:41;;;;;;;;;;;;;;;;;;4958605;28;19914;-79
2023/03/24 10:30:07;;;;;;;;;;;;;;;;;;4974297;28;19919;-79
2023/03/24 10:32:33;;;;;;;;;;;;;;;;;;4975561;28;20002;-80
2023/03/24 10:34:59;;;;;;;;;;;;;;;;;;4942295;28;20370;-80
2023/03/24 10:37:28;;;;;;;;;;;;;;;;;;4926903;28;19960;-79
2023/03/24 10:39:54;;;;;;;;;;;;;;;;;;4958709;28;20362;-79
2023/03/24 10:42:20;;;;;;;;;;;;;;;;;;4926322;28;19925;-79
2023/03/24 10:44:46;;;;;;;;;;;;;;;;;;4974867;28;19925;-81
2023/03/24 10:47:11;;;;;;;;;;;;;;;;;;4958056;28;19914;-81
2023/03/24 10:49:36;;;;;;;;;;;;;;;;;;4974309;28;20396;-80
2023/03/24 10:52:05;;;;;;;;;;;;;;;;;;4975622;28;19921;-80
2023/03/24 10:54:30;;;;;;;;;;;;;;;;;;4975962;28;19918;-80
2023/03/24 10:56:56;;;;;;;;;;;;;;;;;;4957923;28;19928;-82
2023/03/24 10:59:24;;;;;;;;;;;;;;;;;;4958211;28;19915;-79
2023/03/24 11:01:51;;;;;;;;;;;;;;;;;;4975549;28;20013;-81
2023/03/24 11:04:17;;;;;;;;;;;;;;;;;;4927045;28;19910;-79
2023/03/24 11:06:42;;;;;;;;;;;;;;;;;;4958074;28;19961;-80
2023/03/24 11:09:07;;;;;;;;;;;;;;;;;;4941977;28;20428;-78
2023/03/24 11:11:33;;;;;;;;;;;;;;;;;;4975168;28;19953;-80
2023/03/24 11:14:00;;;;;;;;;;;;;;;;;;4975294;28;20385;-80
2023/03/24 11:16:25;;;;;;;;;;;;;;;;;;4957521;28;19937;-79
2023/03/24 11:18:51;;;;;;;;;;;;;;;;;;4975743;28;20397;-79
2023/03/24 11:21:16;;;;;;;;;;;;;;;;;;4974268;28;19972;-80
2023/03/24 11:23:44;;;;;;;;;;;;;;;;;;4958330;28;19914;-78
2023/03/24 11:26:09;;;;;;;;;;;;;;;;;;4927104;28;19914;-80
2023/03/24 11:28:35;;;;;;;;;;;;;;;;;;4958974;28;19921;-79
2023/03/24 11:31:00;;;;;;;;;;;;;;;;;;4959440;28;19914;-79
2023/03/24 11:33:26;;;;;;;;;;;;;;;;;;4926895;28;20281;-79
2023/03/24 11:35:51;;;;;;;;;;;;;;;;;;4975009;28;19918;-79
2023/03/24 11:38:17;;;;;;;;;;;;;;;;;;4957838;28;19921;-80
2023/03/24 11:40:42;;;;;;;;;;;;;;;;;;4958320;28;19969;-81
2023/03/24 11:43:07;;;;;;;;;;;;;;;;;;4974289;28;20267;-83
2023/03/24 11:45:33;;;;;;;;;;;;;;;;;;4940993;28;20337;-82
2023/03/24 11:47:59;;;;;;;;;;;;;;;;;;4942549;28;19914;-81
2023/03/24 11:50:25;;;;;;;;;;;;;;;;;;4925882;28;19914;-80
2023/03/24 11:52:50;;;;;;;;;;;;;;;;;;4957467;28;19914;-82
2023/03/24 11:55:15;;;;;;;;;;;;;;;;;;4960334;28;19918;-80
2023/03/24 11:57:41;;;;;;;;;;;;;;;;;;4944958;28;19977;-80
2023/03/24 12:00:07;;;;;;;;;;;;;;;;;;4961550;28;20270;-79
2023/03/24 12:02:38;;;;;;;;;;;;;;;;;;4946252;28;19914;-80
2023/03/24 12:05:03;;;;;;;;;;;;;;;;;;4944354;28;19922;-80
2023/03/24 12:07:29;;;;;;;;;;;;;;;;;;4945858;28;19922;-81
2023/03/24 12:09:54;;;;;;;;;;;;;;;;;;4977000;28;19915;-81
2023/03/24 12:12:20;;;;;;;;;;;;;;;;;;4978886;28;20301;-81
2023/03/24 12:14:45;;;;;;;;;;;;;;;;;;4943508;28;19918;-81
2023/03/24 12:17:11;;;;;;;;;;;;;;;;;;4942145;28;19918;-80
2023/03/24 12:19:37;;;;;;;;;;;;;;;;;;4960585;28;19973;-80
2023/03/24 12:22:02;;;;;;;;;;;;;;;;;;4944521;28;19914;-84
2023/03/24 12:24:28;;;;;;;;;;;;;;;;;;4943812;28;19970;-84
2023/03/24 12:26:54;;;;;;;;;;;;;;;;;;4943723;28;19940;-83
2023/03/24 12:29:20;;;;;;;;;;;;;;;;;;4943707;28;20366;-84
2023/03/24 12:31:46;;;;;;;;;;;;;;;;;;4944296;28;20377;-83
2023/03/24 12:34:11;;;;;;;;;;;;;;;;;;4959518;28;20016;-83
2023/03/24 12:36:37;;;;;;;;;;;;;;;;;;4959810;28;19918;-83
2023/03/24 12:39:03;;;;;;;;;;;;;;;;;;4961296;28;19925;-81
2023/03/24 12:41:29;;;;;;;;;;;;;;;;;;4967174;28;19910;-83
2023/03/24 12:43:54;;;;;;;;;;;;;;;;;;4964495;28;20281;-83
2023/03/24 12:46:20;;;;;;;;;;;;;;;;;;4945353;28;20309;-84
2023/03/24 12:48:45;;;;;;;;;;;;;;;;;;4960912;28;19914;-84
2023/03/24 12:51:11;;;;;;;;;;;;;;;;;;4943974;28;20349;-83
2023/03/24 12:53:40;;;;;;;;;;;;;;;;;;4960363;28;19918;-84
2023/03/24 12:56:05;;;;;;;;;;;;;;;;;;4944572;28;20437;-84
2023/03/24 12:58:31;;;;;;;;;;;;;;;;;;4960389;28;19914;-84
2023/03/24 13:00:57;;;;;;;;;;;;;;;;;;4961669;28;19940;-83
2023/03/24 13:03:22;;;;;;;;;;;;;;;;;;4978323;28;20340;-83
2023/03/24 13:05:48;;;;;;;;;;;;;;;;;;4959945;28;20311;-84
2023/03/24 13:08:15;;;;;;;;;;;;;;;;;;4960663;28;19911;-83
2023/03/24 13:10:41;;;;;;;;;;;;;;;;;;4945290;28;19921;-82
2023/03/24 13:13:06;;;;;;;;;;;;;;;;;;4946425;28;19914;-80
2023/03/24 13:15:32;;;;;;;;;;;;;;;;;;4948754;28;19918;-81
2023/03/24 13:17:57;;;;;;;;;;;;;;;;;;4963658;28;20322;-82
2023/03/24 13:20:23;;;;;;;;;;;;;;;;;;4946682;28;20287;-82
2023/03/24 13:22:49;;;;;;;;;;;;;;;;;;4979160;28;20345;-80
2023/03/24 13:25:15;;;;;;;;;;;;;;;;;;4945659;28;19914;-81
2023/03/24 13:27:41;;;;;;;;;;;;;;;;;;4945911;28;19944;-80
2023/03/24 13:30:06;;;;;;;;;;;;;;;;;;4961741;28;20020;-82
2023/03/24 13:32:32;;;;;;;;;;;;;;;;;;4960492;28;20408;-82
2023/03/24 13:34:57;;;;;;;;;;;;;;;;;;4962703;28;20031;-80
2023/03/24 13:37:23;;;;;;;;;;;;;;;;;;4960647;28;19921;-83
2023/03/24 13:39:50;;;;;;;;;;;;;;;;;;4946002;28;20382;-79
2023/03/24 13:42:16;;;;;;;;;;;;;;;;;;4960910;28;19936;-83
2023/03/24 13:44:43;;;;;;;;;;;;;;;;;;4878475;28;1902010;-79
2023/03/24 13:47:08;;;;;;;;;;;;;;;;;;4960888;28;19918;-84
2023/03/24 13:49:34;;;;;;;;;;;;;;;;;;4960878;28;19969;-83
2023/03/24 13:51:59;;;;;;;;;;;;;;;;;;4945640;28;20290;-82
2023/03/24 13:54:25;;;;;;;;;;;;;;;;;;4977452;28;20283;-82
2023/03/24 13:56:50;;;;;;;;;;;;;;;;;;4978253;28;20348;-82
2023/03/24 13:59:17;;;;;;;;;;;;;;;;;;4944371;28;19945;-82
2023/03/24 14:01:44;;;;;;;;;;;;;;;;;;4960838;28;20244;-82
2023/03/24 14:04:09;;;;;;;;;;;;;;;;;;4961792;28;20173;-82
2023/03/24 14:06:35;;;;;;;;;;;;;;;;;;4977644;28;20713;-83
2023/03/24 14:09:00;;;;;;;;;;;;;;;;;;4978959;28;20298;-83
2023/03/24 14:11:26;;;;;;;;;;;;;;;;;;4979186;28;20321;-82
2023/03/24 14:13:52;;;;;;;;;;;;;;;;;;4981143;28;20374;-81
2023/03/24 14:16:17;;;;;;;;;;;;;;;;;;4946857;28;20390;-82
2023/03/24 14:18:43;;;;;;;;;;;;;;;;;;4962840;28;20350;-81
2023/03/24 14:21:09;;;;;;;;;;;;;;;;;;4979004;28;19914;-80
2023/03/24 14:23:37;;;;;;;;;;;;;;;;;;4962081;28;19948;-82
2023/03/24 14:26:02;;;;;;;;;;;;;;;;;;4963677;28;19918;-83
2023/03/24 14:28:28;;;;;;;;;;;;;;;;;;4979865;28;20390;-81
2023/03/24 14:30:54;;;;;;;;;;;;;;;;;;4980714;28;19941;-81
2023/03/24 14:33:19;;;;;;;;;;;;;;;;;;4980024;28;19914;-82
2023/03/24 14:35:47;;;;;;;;;;;;;;;;;;4960632;28;19918;-82
2023/03/24 14:38:13;;;;;;;;;;;;;;;;;;4947911;28;19914;-81
2023/03/24 14:40:38;;;;;;;;;;;;;;;;;;4964185;28;20274;-82
2023/03/24 14:43:04;;;;;;;;;;;;;;;;;;4983230;28;19925;-83
2023/03/24 14:45:30;;;;;;;;;;;;;;;;;;4964785;28;20381;-85
2023/03/24 14:47:55;;;;;;;;;;;;;;;;;;4963515;28;20009;-83
2023/03/24 14:50:21;;;;;;;;;;;;;;;;;;4947388;28;19937;-82
2023/03/24 14:52:46;;;;;;;;;;;;;;;;;;4963698;28;19914;-82
2023/03/24 14:55:11;;;;;;;;;;;;;;;;;;4964039;28;19994;-85
2023/03/24 14:57:37;;;;;;;;;;;;;;;;;;4946582;28;19949;-83
2023/03/24 15:00:07;;;;;;;;;;;;;;;;;;4961879;28;20289;-82
2023/03/24 15:02:33;;;;;;;;;;;;;;;;;;4981351;28;19914;-80
2023/03/24 15:04:59;;;;;;;;;;;;;;;;;;4946988;28;20054;-83
2023/03/24 15:07:24;;;;;;;;;;;;;;;;;;4979286;28;19953;-80
2023/03/24 15:09:50;;;;;;;;;;;;;;;;;;4977807;28;19937;-80
2023/03/24 15:12:16;;;;;;;;;;;;;;;;;;4978008;28;19987;-81
2023/03/24 15:14:41;;;;;;;;;;;;;;;;;;4978928;28;19918;-79
2023/03/24 15:17:07;;;;;;;;;;;;;;;;;;4982371;28;19984;-82
2023/03/24 15:19:33;;;;;;;;;;;;;;;;;;4978304;28;19915;-81
2023/03/24 15:21:59;;;;;;;;;;;;;;;;;;4962559;28;19922;-81
2023/03/24 15:24:24;;;;;;;;;;;;;;;;;;4960619;28;20354;-78
2023/03/24 15:26:50;;;;;;;;;;;;;;;;;;4961703;28;20314;-79
2023/03/24 15:29:16;;;;;;;;;;;;;;;;;;4984074;28;19921;-78
2023/03/24 15:31:41;;;;;;;;;;;;;;;;;;4982652;28;19914;-79
2023/03/24 15:34:07;;;;;;;;;;;;;;;;;;4968214;28;19918;-79
2023/03/24 15:36:33;;;;;;;;;;;;;;;;;;4986343;28;19941;-80
2023/03/24 15:38:59;;;;;;;;;;;;;;;;;;4988880;28;19968;-78
2023/03/24 15:41:24;;;;;;;;;;;;;;;;;;4961491;28;19914;-80
2023/03/24 15:43:50;;;;;;;;;;;;;;;;;;4944716;28;19915;-78
2023/03/24 15:46:15;;;;;;;;;;;;;;;;;;4959906;28;19918;-80
2023/03/24 15:48:41;;;;;;;;;;;;;;;;;;4960064;28;20285;-80
2023/03/24 15:51:08;;;;;;;;;;;;;;;;;;4928215;28;20309;-81
2023/03/24 15:53:33;;;;;;;;;;;;;;;;;;4977080;28;19918;-81
2023/03/24 15:55:59;;;;;;;;;;;;;;;;;;4943511;28;19918;-82
2023/03/24 15:58:25;;;;;;;;;;;;;;;;;;4943660;28;20285;-81
2023/03/24 16:00:51;;;;;;;;;;;;;;;;;;4956257;29;19962;-81
2023/03/24 16:03:25;;;;;;;;;;;;;;;;;;4940628;29;19915;-81
2023/03/24 16:05:50;;;;;;;;;;;;;;;;;;4939995;29;19991;-80
2023/03/24 16:08:16;;;;;;;;;;;;;;;;;;4924648;29;20009;-82
2023/03/24 16:10:42;;;;;;;;;;;;;;;;;;4940421;29;19921;-82
2023/03/24 16:13:07;;;;;;;;;;;;;;;;;;4957456;29;19921;-81
2023/03/24 16:15:33;;;;;;;;;;;;;;;;;;4940197;29;19922;-82
2023/03/24 16:17:58;;;;;;;;;;;;;;;;;;4940414;29;20317;-80
2023/03/24 16:20:24;;;;;;;;;;;;;;;;;;4924918;29;20418;-82
2023/03/24 16:22:52;;;;;;;;;;;;;;;;;;4940431;29;19914;-83
2023/03/24 16:25:18;;;;;;;;;;;;;;;;;;4923988;29;20273;-79
2023/03/24 16:27:43;;;;;;;;;;;;;;;;;;4940367;29;20297;-80
2023/03/24 16:30:09;;;;;;;;;;;;;;;;;;4939888;29;19914;-80
2023/03/24 16:32:34;;;;;;;;;;;;;;;;;;4924142;29;19914;-81
2023/03/24 16:35:00;;;;;;;;;;;;;;;;;;4939435;29;19924;-79
2023/03/24 16:37:26;;;;;;;;;;;;;;;;;;4924002;29;19918;-79
2023/03/24 16:39:51;;;;;;;;;;;;;;;;;;4923165;29;19914;-80
2023/03/24 16:42:17;;;;;;;;;;;;;;;;;;4924189;29;19969;-78
2023/03/24 16:44:44;;;;;;;;;;;;;;;;;;4956222;28;19934;-79
2023/03/24 16:47:10;;;;;;;;;;;;;;;;;;4939572;29;19914;-78